Thursday, August 16, 2018, 5:55 AM GMT
Back to Local

CWWZ, Port Weller, Ont.

Location: , , Canada Lat: 43.25
Local Time: 5:55 AM GMT ( 5:55 GMT) Lon: -79.217
Time Zone: GMT Elev: 259 ft

Show me the last for .
Show Coded

Time T Td Feel RH Dir Speed Gust Alt SLP Vis Weather Sky Remarks
2018-08-16 05:00 75 70 79 85 210° 5 - - 29.98 0 None
2018-08-16 04:00 76 71 80 86 220° 2 - - 29.98 0 None
2018-08-16 03:00 76 72 80 85 240° 1 - - 29.97 0 None
2018-08-16 02:00 77 71 81 80 - Calm - - 29.97 0 None
2018-08-16 01:00 78 72 83 81 230° 3 - - 29.96 0 None
2018-08-16 00:00 80 70 84 72 - Calm - - 29.93 0 None
2018-08-15 23:00 80 69 83 70 240° 1 - - 29.91 0 None
2018-08-15 22:00 84 71 89 64 260° 5 - - 29.91 0 None
2018-08-15 21:00 85 70 90 61 270° 15 - - 29.91 0 None
2018-08-15 20:00 85 74 93 70 280° 13 - - 29.92 0 None
2018-08-15 19:00 86 73 94 65 260° 6 - - 29.93 0 None
2018-08-15 18:00 86 73 94 65 280° 8 - - 29.93 0 None
2018-08-15 17:00 84 71 89 65 230° 1 - - 29.93 0 None
2018-08-15 16:00 83 70 87 65 220° 1 - - 29.93 0 None
2018-08-15 15:00 80 70 84 71 - Calm - - 29.93 0 None
2018-08-15 14:00 79 69 83 72 210° 1 - - 29.92 0 None
2018-08-15 13:00 77 69 81 76 - Calm - - 29.92 0 None
2018-08-15 12:00 74 67 77 79 220° 5 - - 29.90 0 None
2018-08-15 11:00 73 66 77 80 220° 7 - - 29.89 0 None
2018-08-15 10:00 73 66 77 79 220° 7 - - 29.88 0 None
2018-08-15 09:00 73 64 77 71 220° 6 - - 29.88 0 None
2018-08-15 08:00 73 65 77 77 220° 6 - - 29.87 0 None
2018-08-15 07:00 73 65 77 78 220° 6 - - 29.88 0 None
2018-08-15 06:00 72 64 76 74 210° 6 - - 29.88 0 None

Support USWX by starting your Amazon purchase here.